Time;durP1;ratioP1;P1;durP2;ratioP2;P2;SDS_P1;SDS_P2;PMS_P1;PMS_P2;Temp;Humidity;BMP_temperature;BMP_pressure;BME280_temperature;BME280_humidity;BME280_pressure;Samples;Min_cycle;Max_cycle;Signal;HPM_P1;HPM_P2
2022/01/14 00:01:32;;;;;;;;;;;;;;;;;;5076665;28;1581;-75
2022/01/14 00:03:57;;;;;;;;;;;;;;;;;;5074803;28;1402;-75
2022/01/14 00:06:22;;;;;;;;;;;;;;;;;;5073110;28;1634;-75
2022/01/14 00:08:47;;;;;;;;;;;;;;;;;;5073044;28;1383;-75
2022/01/14 00:11:17;;;;;;;;;;;;;;;;;;5075113;28;1616;-75
2022/01/14 00:16:08;;;;;;;;;;;;;;;;;;5077228;28;1569;-74
2022/01/14 00:18:33;;;;;;;;;;;;;;;;;;5081302;28;1511;-75
2022/01/14 00:21:00;;;;;;;;;;;;;;;;;;5090743;28;1621;-75
2022/01/14 00:23:30;;;;;;;;;;;;;;;;;;5094096;28;1414;-75
2022/01/14 00:34:07;;;;;;;;;;;;;;;;;;5075710;28;1906;-74
2022/01/14 00:36:32;;;;;;;;;;;;;;;;;;5074197;28;1647;-74
2022/01/14 00:38:58;;;;;;;;;;;;;;;;;;5071209;28;1624;-74
2022/01/14 00:41:23;;;;;;;;;;;;;;;;;;5072530;28;1599;-74
2022/01/14 00:43:50;;;;;;;;;;;;;;;;;;5077714;28;1589;-74
2022/01/14 00:46:15;;;;;;;;;;;;;;;;;;5090628;28;1632;-74
2022/01/14 00:48:41;;;;;;;;;;;;;;;;;;5076880;28;1592;-74
2022/01/14 00:51:06;;;;;;;;;;;;;;;;;;5072059;28;1580;-74
2022/01/14 00:53:31;;;;;;;;;;;;;;;;;;5072634;28;1898;-74
2022/01/14 00:56:06;;;;;;;;;;;;;;;;;;5072003;28;1622;-74
2022/01/14 01:01:15;;;;;;;;;;;;;;;;;;5072213;28;1568;-74
2022/01/14 01:03:40;;;;;;;;;;;;;;;;;;5072640;28;1569;-75
2022/01/14 01:06:07;;;;;;;;;;;;;;;;;;5072752;28;1544;-74
2022/01/14 01:08:33;;;;;;;;;;;;;;;;;;5071027;28;1685;-74
2022/01/14 01:10:58;;;;;;;;;;;;;;;;;;5072666;28;1576;-74
2022/01/14 01:13:32;;;;;;;;;;;;;;;;;;5072486;28;1983;-74
2022/01/14 01:15:57;;;;;;;;;;;;;;;;;;5088852;28;1409;-75
2022/01/14 01:18:23;;;;;;;;;;;;;;;;;;5083620;28;1595;-74
2022/01/14 01:20:48;;;;;;;;;;;;;;;;;;5071323;28;1659;-74
2022/01/14 01:23:14;;;;;;;;;;;;;;;;;;5087166;28;1590;-74
2022/01/14 01:25:45;;;;;;;;;;;;;;;;;;5073327;28;1571;-74
2022/01/14 01:28:10;;;;;;;;;;;;;;;;;;5073068;28;1388;-74
2022/01/14 01:33:01;;;;;;;;;;;;;;;;;;5085442;28;1977;-74
2022/01/14 01:35:26;;;;;;;;;;;;;;;;;;5103661;28;1041;-74
2022/01/14 01:37:52;;;;;;;;;;;;;;;;;;5108169;28;1599;-74
2022/01/14 01:40:19;;;;;;;;;;;;;;;;;;5072961;28;1372;-75
2022/01/14 01:42:45;;;;;;;;;;;;;;;;;;5072867;28;873;-74
2022/01/14 01:45:12;;;;;;;;;;;;;;;;;;5071202;28;1616;-74
2022/01/14 01:47:38;;;;;;;;;;;;;;;;;;5054614;28;1485;-74
2022/01/14 01:50:11;;;;;;;;;;;;;;;;;;5070750;28;1614;-74
2022/01/14 01:52:36;;;;;;;;;;;;;;;;;;5071849;28;794;-74
2022/01/14 01:55:01;;;;;;;;;;;;;;;;;;5081209;28;1951;-73
2022/01/14 01:57:26;;;;;;;;;;;;;;;;;;5089178;28;1395;-74
2022/01/14 01:59:52;;;;;;;;;;;;;;;;;;5077473;28;1657;-74
2022/01/14 02:02:17;;;;;;;;;;;;;;;;;;5077763;28;1465;-74
2022/01/14 02:04:42;;;;;;;;;;;;;;;;;;5072409;28;1437;-74
2022/01/14 02:07:07;;;;;;;;;;;;;;;;;;5074136;28;1580;-75
2022/01/14 02:09:32;;;;;;;;;;;;;;;;;;5078448;28;1431;-74
2022/01/14 02:11:57;;;;;;;;;;;;;;;;;;5091325;28;1626;-75
2022/01/14 02:14:53;;;;;;;;;;;;;;;;;;5086430;28;1901;-76
2022/01/14 02:22:47;;;;;;;;;;;;;;;;;;5075162;28;1561;-76
2022/01/14 02:25:15;;;;;;;;;;;;;;;;;;5091601;28;1591;-75
2022/01/14 02:27:40;;;;;;;;;;;;;;;;;;5075469;28;1601;-74
2022/01/14 02:30:05;;;;;;;;;;;;;;;;;;5075401;28;1686;-75
2022/01/14 02:32:30;;;;;;;;;;;;;;;;;;5075298;28;1610;-75
2022/01/14 02:34:56;;;;;;;;;;;;;;;;;;5082425;28;1902;-75
2022/01/14 02:37:21;;;;;;;;;;;;;;;;;;5094323;28;1500;-74
2022/01/14 02:39:46;;;;;;;;;;;;;;;;;;5080951;28;1597;-74
2022/01/14 02:42:11;;;;;;;;;;;;;;;;;;5082147;28;1557;-75
2022/01/14 02:44:37;;;;;;;;;;;;;;;;;;5081953;28;1697;-75
2022/01/14 02:47:05;;;;;;;;;;;;;;;;;;5075179;28;1646;-75
2022/01/14 02:49:32;;;;;;;;;;;;;;;;;;5088427;28;1674;-75
2022/01/14 02:51:58;;;;;;;;;;;;;;;;;;5082933;28;1814;-75
2022/01/14 02:54:31;;;;;;;;;;;;;;;;;;5086605;28;1902;-75
2022/01/14 02:56:56;;;;;;;;;;;;;;;;;;5084873;28;1660;-75
2022/01/14 02:59:21;;;;;;;;;;;;;;;;;;5065178;28;1493;-74
2022/01/14 03:01:47;;;;;;;;;;;;;;;;;;5074429;28;1640;-75
2022/01/14 03:04:16;;;;;;;;;;;;;;;;;;5084557;28;1749;-75
2022/01/14 03:06:42;;;;;;;;;;;;;;;;;;5075280;28;1610;-75
2022/01/14 03:09:07;;;;;;;;;;;;;;;;;;5083757;28;1347;-75
2022/01/14 03:11:34;;;;;;;;;;;;;;;;;;5092483;28;1569;-75
2022/01/14 03:14:00;;;;;;;;;;;;;;;;;;5078187;28;1901;-76
2022/01/14 03:16:26;;;;;;;;;;;;;;;;;;5083286;28;1360;-76
2022/01/14 03:18:53;;;;;;;;;;;;;;;;;;5085818;28;1583;-76
2022/01/14 03:21:28;;;;;;;;;;;;;;;;;;5095706;28;802;-75
2022/01/14 03:24:03;;;;;;;;;;;;;;;;;;5089301;28;1588;-75
2022/01/14 03:26:29;;;;;;;;;;;;;;;;;;5081320;28;1360;-75
2022/01/14 03:28:54;;;;;;;;;;;;;;;;;;5089632;28;1591;-75
2022/01/14 03:31:19;;;;;;;;;;;;;;;;;;5075202;28;897;-76
2022/01/14 03:33:44;;;;;;;;;;;;;;;;;;5096703;28;1918;-75
2022/01/14 03:36:09;;;;;;;;;;;;;;;;;;5075174;28;1606;-75
2022/01/14 03:38:35;;;;;;;;;;;;;;;;;;5073463;28;1187;-75
2022/01/14 03:41:01;;;;;;;;;;;;;;;;;;5074217;28;1611;-75
2022/01/14 03:43:26;;;;;;;;;;;;;;;;;;5092175;28;1454;-75
2022/01/14 03:45:51;;;;;;;;;;;;;;;;;;5084234;28;1615;-75
2022/01/14 03:48:17;;;;;;;;;;;;;;;;;;5089151;28;1411;-75
2022/01/14 03:50:43;;;;;;;;;;;;;;;;;;5087689;28;1646;-75
2022/01/14 03:53:10;;;;;;;;;;;;;;;;;;5074545;28;1968;-75
2022/01/14 03:55:36;;;;;;;;;;;;;;;;;;5072950;28;1640;-75
2022/01/14 03:58:01;;;;;;;;;;;;;;;;;;5074570;28;1255;-75
2022/01/14 04:00:28;;;;;;;;;;;;;;;;;;5074399;28;1547;-75
2022/01/14 04:02:54;;;;;;;;;;;;;;;;;;5072728;28;1597;-75
2022/01/14 04:05:19;;;;;;;;;;;;;;;;;;5073866;28;1651;-75
2022/01/14 04:07:44;;;;;;;;;;;;;;;;;;5074288;28;1140;-75
2022/01/14 04:10:12;;;;;;;;;;;;;;;;;;5073389;28;1616;-75
2022/01/14 04:15:38;;;;;;;;;;;;;;;;;;5046036;28;1895;-75
2022/01/14 04:18:04;;;;;;;;;;;;;;;;;;5069204;28;1332;-75
2022/01/14 04:20:29;;;;;;;;;;;;;;;;;;5089135;28;1553;-75
2022/01/14 04:22:55;;;;;;;;;;;;;;;;;;5072841;28;1400;-75
2022/01/14 04:25:20;;;;;;;;;;;;;;;;;;5074050;28;909;-75
2022/01/14 04:27:45;;;;;;;;;;;;;;;;;;5073381;28;1592;-75
2022/01/14 04:30:11;;;;;;;;;;;;;;;;;;5072510;28;1438;-75
2022/01/14 04:32:36;;;;;;;;;;;;;;;;;;5073041;28;1535;-75
2022/01/14 04:35:01;;;;;;;;;;;;;;;;;;5091694;28;1901;-74
2022/01/14 04:37:27;;;;;;;;;;;;;;;;;;5103276;28;1598;-75
2022/01/14 04:39:52;;;;;;;;;;;;;;;;;;5082350;28;1444;-75
2022/01/14 04:42:17;;;;;;;;;;;;;;;;;;5072872;28;1713;-75
2022/01/14 04:44:42;;;;;;;;;;;;;;;;;;5073939;28;865;-74
2022/01/14 04:47:17;;;;;;;;;;;;;;;;;;5079968;28;1563;-75
2022/01/14 04:49:42;;;;;;;;;;;;;;;;;;5082544;28;1535;-74
2022/01/14 04:52:08;;;;;;;;;;;;;;;;;;5072741;28;1587;-74
2022/01/14 04:54:34;;;;;;;;;;;;;;;;;;5073435;28;1957;-75
2022/01/14 04:56:59;;;;;;;;;;;;;;;;;;5081528;28;1590;-75
2022/01/14 04:59:24;;;;;;;;;;;;;;;;;;5072773;28;1926;-75
2022/01/14 05:01:49;;;;;;;;;;;;;;;;;;5073419;28;1465;-75
2022/01/14 05:04:15;;;;;;;;;;;;;;;;;;5072696;28;1548;-75
2022/01/14 05:06:43;;;;;;;;;;;;;;;;;;5073377;28;1254;-74
2022/01/14 05:09:18;;;;;;;;;;;;;;;;;;5076769;28;1539;-75
2022/01/14 05:11:51;;;;;;;;;;;;;;;;;;5073462;28;1542;-74
2022/01/14 05:14:17;;;;;;;;;;;;;;;;;;5072446;28;1910;-74
2022/01/14 05:16:42;;;;;;;;;;;;;;;;;;5073065;28;1443;-75
2022/01/14 05:19:07;;;;;;;;;;;;;;;;;;5072370;28;1623;-74
2022/01/14 05:21:32;;;;;;;;;;;;;;;;;;5075884;28;2108;-74
2022/01/14 05:23:57;;;;;;;;;;;;;;;;;;5073242;28;1415;-74
2022/01/14 05:26:23;;;;;;;;;;;;;;;;;;5081257;28;1625;-74
2022/01/14 05:28:48;;;;;;;;;;;;;;;;;;5071797;28;1678;-74
2022/01/14 05:31:13;;;;;;;;;;;;;;;;;;5071415;28;1623;-74
2022/01/14 05:33:41;;;;;;;;;;;;;;;;;;5076288;28;1905;-74
2022/01/14 05:36:06;;;;;;;;;;;;;;;;;;5108397;28;1173;-74
2022/01/14 05:38:31;;;;;;;;;;;;;;;;;;5093933;28;1682;-74
2022/01/14 05:40:56;;;;;;;;;;;;;;;;;;5072054;28;1516;-74
2022/01/14 05:43:22;;;;;;;;;;;;;;;;;;5071515;28;1576;-74
2022/01/14 05:45:47;;;;;;;;;;;;;;;;;;5071905;28;1591;-73
2022/01/14 05:48:12;;;;;;;;;;;;;;;;;;5072910;28;1165;-74
2022/01/14 05:50:37;;;;;;;;;;;;;;;;;;5071504;28;1617;-74
2022/01/14 05:53:02;;;;;;;;;;;;;;;;;;5072881;28;1961;-74
2022/01/14 05:55:28;;;;;;;;;;;;;;;;;;5072600;28;1429;-74
2022/01/14 05:57:53;;;;;;;;;;;;;;;;;;5071726;28;1638;-74
2022/01/14 06:00:19;;;;;;;;;;;;;;;;;;5072385;28;1348;-74
2022/01/14 06:02:45;;;;;;;;;;;;;;;;;;5072097;28;1510;-74
2022/01/14 06:05:10;;;;;;;;;;;;;;;;;;5072724;28;971;-74
2022/01/14 06:07:35;;;;;;;;;;;;;;;;;;5080082;28;1619;-74
2022/01/14 06:10:01;;;;;;;;;;;;;;;;;;5083113;28;1468;-75
2022/01/14 06:12:26;;;;;;;;;;;;;;;;;;5070902;28;1576;-74
2022/01/14 06:14:51;;;;;;;;;;;;;;;;;;5072620;28;1902;-74
2022/01/14 06:17:16;;;;;;;;;;;;;;;;;;5074775;28;1607;-74
2022/01/14 06:19:41;;;;;;;;;;;;;;;;;;5072320;28;1508;-74
2022/01/14 06:22:06;;;;;;;;;;;;;;;;;;5080133;28;1603;-74
2022/01/14 06:24:32;;;;;;;;;;;;;;;;;;5092502;28;988;-73
2022/01/14 06:26:57;;;;;;;;;;;;;;;;;;5085445;28;1569;-73
2022/01/14 06:29:22;;;;;;;;;;;;;;;;;;5071984;28;1437;-73
2022/01/14 06:31:48;;;;;;;;;;;;;;;;;;5071950;28;1594;-73
2022/01/14 06:34:14;;;;;;;;;;;;;;;;;;5075923;28;1910;-73
2022/01/14 06:36:40;;;;;;;;;;;;;;;;;;5111759;28;1290;-74
2022/01/14 06:39:05;;;;;;;;;;;;;;;;;;5087888;28;1563;-74
2022/01/14 06:41:30;;;;;;;;;;;;;;;;;;5072204;28;1516;-73
2022/01/14 06:43:57;;;;;;;;;;;;;;;;;;5071570;28;1713;-73
2022/01/14 06:46:22;;;;;;;;;;;;;;;;;;5071402;28;1587;-74
2022/01/14 06:48:48;;;;;;;;;;;;;;;;;;5071652;28;1587;-74
2022/01/14 06:51:15;;;;;;;;;;;;;;;;;;5083136;28;1722;-74
2022/01/14 06:53:40;;;;;;;;;;;;;;;;;;5072749;28;1901;-74
2022/01/14 06:56:05;;;;;;;;;;;;;;;;;;5092022;28;1656;-74
2022/01/14 06:58:31;;;;;;;;;;;;;;;;;;5075268;28;1426;-74
2022/01/14 07:00:56;;;;;;;;;;;;;;;;;;5073965;28;1584;-74
2022/01/14 07:03:21;;;;;;;;;;;;;;;;;;5082239;28;1564;-74
2022/01/14 07:05:46;;;;;;;;;;;;;;;;;;5093753;28;1511;-74
2022/01/14 07:08:11;;;;;;;;;;;;;;;;;;5094581;28;1152;-74
2022/01/14 07:10:37;;;;;;;;;;;;;;;;;;5076813;28;1679;-74
2022/01/14 07:13:03;;;;;;;;;;;;;;;;;;5075468;28;1959;-74
2022/01/14 07:15:28;;;;;;;;;;;;;;;;;;5078211;28;1596;-74
2022/01/14 07:17:53;;;;;;;;;;;;;;;;;;5075511;28;1168;-74
2022/01/14 07:20:19;;;;;;;;;;;;;;;;;;5076063;28;1648;-74
2022/01/14 07:22:46;;;;;;;;;;;;;;;;;;5095775;28;952;-74
2022/01/14 07:25:11;;;;;;;;;;;;;;;;;;5092171;28;1615;-73
2022/01/14 07:27:36;;;;;;;;;;;;;;;;;;5075077;28;1263;-73
2022/01/14 07:30:03;;;;;;;;;;;;;;;;;;5073944;28;1397;-74
2022/01/14 07:32:28;;;;;;;;;;;;;;;;;;5074387;28;1547;-73
2022/01/14 07:34:53;;;;;;;;;;;;;;;;;;5077906;28;1909;-74
2022/01/14 07:37:19;;;;;;;;;;;;;;;;;;5076523;28;1372;-73
2022/01/14 07:39:44;;;;;;;;;;;;;;;;;;5078463;28;1611;-74
2022/01/14 07:42:09;;;;;;;;;;;;;;;;;;5076912;28;1333;-73
2022/01/14 07:44:35;;;;;;;;;;;;;;;;;;5073063;28;1636;-74
2022/01/14 07:47:00;;;;;;;;;;;;;;;;;;5073727;28;1374;-73
2022/01/14 07:49:25;;;;;;;;;;;;;;;;;;5073999;28;1635;-73
2022/01/14 07:51:51;;;;;;;;;;;;;;;;;;5074757;28;1763;-74
2022/01/14 07:54:16;;;;;;;;;;;;;;;;;;5074023;28;1959;-74
2022/01/14 07:56:45;;;;;;;;;;;;;;;;;;5075258;28;1469;-73
2022/01/14 07:59:10;;;;;;;;;;;;;;;;;;5075897;28;1622;-74
2022/01/14 08:01:36;;;;;;;;;;;;;;;;;;5073547;28;814;-74
2022/01/14 08:04:01;;;;;;;;;;;;;;;;;;5073539;28;1580;-74
2022/01/14 08:06:27;;;;;;;;;;;;;;;;;;5083488;28;1439;-74
2022/01/14 08:08:52;;;;;;;;;;;;;;;;;;5076963;28;1703;-74
2022/01/14 08:11:17;;;;;;;;;;;;;;;;;;5073668;28;1615;-74
2022/01/14 08:13:43;;;;;;;;;;;;;;;;;;5072358;28;1902;-74
2022/01/14 08:16:08;;;;;;;;;;;;;;;;;;5086831;28;1733;-74
2022/01/14 08:18:33;;;;;;;;;;;;;;;;;;5073110;28;1600;-74
2022/01/14 08:20:59;;;;;;;;;;;;;;;;;;5074256;28;1652;-77
2022/01/14 08:23:24;;;;;;;;;;;;;;;;;;5078870;28;1608;-74
2022/01/14 08:25:53;;;;;;;;;;;;;;;;;;5075163;28;1730;-74
2022/01/14 08:28:18;;;;;;;;;;;;;;;;;;5091039;28;1517;-75
2022/01/14 08:30:43;;;;;;;;;;;;;;;;;;5100250;28;1532;-75
2022/01/14 08:33:08;;;;;;;;;;;;;;;;;;5095863;28;1909;-74
2022/01/14 08:35:34;;;;;;;;;;;;;;;;;;5093061;28;1584;-75
2022/01/14 08:37:59;;;;;;;;;;;;;;;;;;5097825;28;1701;-74
2022/01/14 08:40:24;;;;;;;;;;;;;;;;;;5099930;28;1591;-74
2022/01/14 08:42:53;;;;;;;;;;;;;;;;;;5098319;28;1571;-74
2022/01/14 08:45:21;;;;;;;;;;;;;;;;;;5094259;28;1642;-74
2022/01/14 08:47:46;;;;;;;;;;;;;;;;;;5100751;28;1627;-74
2022/01/14 08:50:11;;;;;;;;;;;;;;;;;;5093477;28;1583;-73
2022/01/14 08:52:37;;;;;;;;;;;;;;;;;;5094443;28;1598;-74
2022/01/14 08:55:02;;;;;;;;;;;;;;;;;;5098838;28;1961;-74
2022/01/14 08:57:27;;;;;;;;;;;;;;;;;;5094506;28;2164;-74
2022/01/14 08:59:53;;;;;;;;;;;;;;;;;;5099510;28;1588;-73
2022/01/14 09:02:18;;;;;;;;;;;;;;;;;;5096338;28;1673;-74
2022/01/14 09:04:43;;;;;;;;;;;;;;;;;;5100867;28;1576;-73
2022/01/14 09:07:09;;;;;;;;;;;;;;;;;;5096177;28;1595;-74
2022/01/14 09:09:34;;;;;;;;;;;;;;;;;;5099003;28;1704;-74
2022/01/14 09:12:00;;;;;;;;;;;;;;;;;;5095085;28;1687;-73
2022/01/14 09:14:25;;;;;;;;;;;;;;;;;;5091605;28;1909;-74
2022/01/14 09:16:50;;;;;;;;;;;;;;;;;;5096709;28;1588;-74
2022/01/14 09:19:16;;;;;;;;;;;;;;;;;;5103064;28;1327;-74
2022/01/14 09:21:44;;;;;;;;;;;;;;;;;;5095584;28;1673;-74
2022/01/14 09:24:09;;;;;;;;;;;;;;;;;;5101626;28;1164;-74
2022/01/14 09:26:35;;;;;;;;;;;;;;;;;;5099541;28;1691;-73
2022/01/14 09:29:00;;;;;;;;;;;;;;;;;;5100782;28;1232;-74
2022/01/14 09:31:26;;;;;;;;;;;;;;;;;;5082468;28;1690;-73
2022/01/14 09:33:51;;;;;;;;;;;;;;;;;;5100463;28;1906;-74
2022/01/14 09:36:17;;;;;;;;;;;;;;;;;;5095046;28;1532;-74
2022/01/14 09:38:43;;;;;;;;;;;;;;;;;;5102419;28;1310;-72
2022/01/14 09:41:08;;;;;;;;;;;;;;;;;;5095663;28;1611;-73
2022/01/14 09:43:38;;;;;;;;;;;;;;;;;;5100938;28;1411;-74
2022/01/14 09:46:05;;;;;;;;;;;;;;;;;;5100559;28;1695;-72
2022/01/14 09:48:30;;;;;;;;;;;;;;;;;;5100648;28;1350;-72
2022/01/14 09:50:56;;;;;;;;;;;;;;;;;;5098659;28;1634;-72
2022/01/14 09:53:21;;;;;;;;;;;;;;;;;;5101478;28;1913;-74
2022/01/14 09:55:46;;;;;;;;;;;;;;;;;;5097399;28;1347;-73
2022/01/14 09:58:11;;;;;;;;;;;;;;;;;;5097116;28;1610;-73
2022/01/14 10:00:37;;;;;;;;;;;;;;;;;;5084141;28;1521;-72
2022/01/14 10:03:21;;;;;;;;;;;;;;;;;;5086442;28;1551;-70
2022/01/14 10:05:51;;;;;;;;;;;;;;;;;;5082453;28;1626;-72
2022/01/14 10:08:20;;;;;;;;;;;;;;;;;;5081666;28;1677;-74
2022/01/14 10:10:46;;;;;;;;;;;;;;;;;;5072255;28;1412;-74
2022/01/14 10:13:22;;;;;;;;;;;;;;;;;;5085419;28;1901;-75
2022/01/14 10:15:48;;;;;;;;;;;;;;;;;;5087519;28;1636;-75
2022/01/14 10:18:14;;;;;;;;;;;;;;;;;;5072276;28;1682;-73
2022/01/14 10:20:39;;;;;;;;;;;;;;;;;;5070857;28;1524;-72
2022/01/14 10:23:05;;;;;;;;;;;;;;;;;;5071823;28;1623;-73
2022/01/14 10:25:30;;;;;;;;;;;;;;;;;;5070730;28;1679;-74
2022/01/14 10:27:55;;;;;;;;;;;;;;;;;;5081831;28;1678;-74
2022/01/14 10:30:34;;;;;;;;;;;;;;;;;;5074412;28;1699;-74
2022/01/14 10:33:00;;;;;;;;;;;;;;;;;;5074199;28;1676;-74
2022/01/14 10:35:27;;;;;;;;;;;;;;;;;;5084623;28;1973;-74
2022/01/14 10:37:54;;;;;;;;;;;;;;;;;;5074642;28;1583;-74
2022/01/14 10:40:20;;;;;;;;;;;;;;;;;;5075403;28;1693;-74
2022/01/14 10:42:47;;;;;;;;;;;;;;;;;;5074489;28;1600;-74
2022/01/14 10:45:21;;;;;;;;;;;;;;;;;;5074234;28;1647;-75
2022/01/14 10:48:05;;;;;;;;;;;;;;;;;;5075116;28;1556;-74
2022/01/14 10:50:41;;;;;;;;;;;;;;;;;;5089963;28;1669;-74
2022/01/14 10:53:11;;;;;;;;;;;;;;;;;;5073628;28;1803;-74
2022/01/14 10:55:38;;;;;;;;;;;;;;;;;;5075182;28;1584;-74
2022/01/14 10:58:03;;;;;;;;;;;;;;;;;;5074815;28;1583;-74
2022/01/14 11:00:29;;;;;;;;;;;;;;;;;;5074006;28;1635;-74
2022/01/14 11:02:54;;;;;;;;;;;;;;;;;;5073254;28;1660;-74
2022/01/14 11:05:23;;;;;;;;;;;;;;;;;;5074319;28;1803;-74
2022/01/14 11:07:49;;;;;;;;;;;;;;;;;;5075818;28;1176;-74
2022/01/14 11:10:26;;;;;;;;;;;;;;;;;;5074956;28;1555;-74
2022/01/14 11:12:52;;;;;;;;;;;;;;;;;;5074247;28;1459;-74
2022/01/14 11:15:17;;;;;;;;;;;;;;;;;;5075405;28;1906;-74
2022/01/14 11:17:43;;;;;;;;;;;;;;;;;;5083060;28;1651;-74
2022/01/14 11:20:09;;;;;;;;;;;;;;;;;;5075203;28;909;-74
2022/01/14 11:25:18;;;;;;;;;;;;;;;;;;5075364;28;648;-74
2022/01/14 11:27:48;;;;;;;;;;;;;;;;;;5074538;28;1572;-74
2022/01/14 11:30:13;;;;;;;;;;;;;;;;;;5075096;28;842;-74
2022/01/14 11:32:52;;;;;;;;;;;;;;;;;;5073756;28;1696;-74
2022/01/14 11:35:22;;;;;;;;;;;;;;;;;;5095616;28;1971;-74
2022/01/14 11:37:47;;;;;;;;;;;;;;;;;;5107919;28;1608;-74
2022/01/14 11:40:15;;;;;;;;;;;;;;;;;;5087341;28;1962;-74
2022/01/14 11:42:50;;;;;;;;;;;;;;;;;;5095673;28;865;-74
2022/01/14 11:45:17;;;;;;;;;;;;;;;;;;5076217;28;1731;-74
2022/01/14 11:47:44;;;;;;;;;;;;;;;;;;5094216;28;1184;-74
2022/01/14 11:50:19;;;;;;;;;;;;;;;;;;5094856;28;830;-74
2022/01/14 11:52:44;;;;;;;;;;;;;;;;;;5074648;28;1874;-74
2022/01/14 11:55:19;;;;;;;;;;;;;;;;;;5056793;28;1914;-74
2022/01/14 11:57:45;;;;;;;;;;;;;;;;;;5072888;28;1611;-74
2022/01/14 12:00:37;;;;;;;;;;;;;;;;;;5073201;28;849;-75
2022/01/14 12:03:26;;;;;;;;;;;;;;;;;;5069439;28;1613;-75
2022/01/14 12:05:55;;;;;;;;;;;;;;;;;;5074574;28;778;-74
2022/01/14 12:08:24;;;;;;;;;;;;;;;;;;5075141;28;1558;-74
2022/01/14 12:10:50;;;;;;;;;;;;;;;;;;5094656;28;854;-74
2022/01/14 12:13:26;;;;;;;;;;;;;;;;;;5085128;28;1963;-74
2022/01/14 12:16:00;;;;;;;;;;;;;;;;;;5079090;28;1691;-74
2022/01/14 12:18:57;;;;;;;;;;;;;;;;;;5081510;28;1567;-74
2022/01/14 12:21:37;;;;;;;;;;;;;;;;;;5065877;28;1626;-75
2022/01/14 12:24:27;;;;;;;;;;;;;;;;;;5080841;28;1572;-75
2022/01/14 12:26:52;;;;;;;;;;;;;;;;;;5083561;28;1574;-74
2022/01/14 12:29:17;;;;;;;;;;;;;;;;;;5090611;28;1570;-74
2022/01/14 12:32:02;;;;;;;;;;;;;;;;;;5073372;28;1574;-74
2022/01/14 12:34:27;;;;;;;;;;;;;;;;;;5081246;28;1906;-75
2022/01/14 12:36:53;;;;;;;;;;;;;;;;;;5098161;28;1617;-74
2022/01/14 12:39:18;;;;;;;;;;;;;;;;;;5075478;28;1633;-75
2022/01/14 12:41:43;;;;;;;;;;;;;;;;;;5071650;28;1606;-74
2022/01/14 12:44:08;;;;;;;;;;;;;;;;;;5072918;28;1607;-75
2022/01/14 12:46:55;;;;;;;;;;;;;;;;;;5072911;28;1643;-74
2022/01/14 12:49:20;;;;;;;;;;;;;;;;;;5072212;28;1639;-74
2022/01/14 12:51:46;;;;;;;;;;;;;;;;;;5071448;28;1698;-74
2022/01/14 12:54:11;;;;;;;;;;;;;;;;;;5086708;28;1967;-74
2022/01/14 12:56:39;;;;;;;;;;;;;;;;;;5071828;28;1737;-74
2022/01/14 12:59:05;;;;;;;;;;;;;;;;;;5062784;28;1502;-74
2022/01/14 13:01:32;;;;;;;;;;;;;;;;;;5072866;28;1572;-75
2022/01/14 13:03:58;;;;;;;;;;;;;;;;;;5070943;28;1615;-75
2022/01/14 13:06:23;;;;;;;;;;;;;;;;;;5071686;28;1555;-75
2022/01/14 13:08:56;;;;;;;;;;;;;;;;;;5071502;28;1607;-75
2022/01/14 13:11:21;;;;;;;;;;;;;;;;;;5071548;28;1769;-75
2022/01/14 13:13:56;;;;;;;;;;;;;;;;;;5083204;28;1971;-75
2022/01/14 13:16:21;;;;;;;;;;;;;;;;;;5093706;28;831;-75
2022/01/14 13:18:47;;;;;;;;;;;;;;;;;;5080687;28;1441;-74
2022/01/14 13:21:12;;;;;;;;;;;;;;;;;;5072067;28;803;-75
2022/01/14 13:23:37;;;;;;;;;;;;;;;;;;5071418;28;1645;-75
2022/01/14 13:26:03;;;;;;;;;;;;;;;;;;5073159;28;846;-75
2022/01/14 13:28:28;;;;;;;;;;;;;;;;;;5070881;28;1652;-75
2022/01/14 13:30:53;;;;;;;;;;;;;;;;;;5071865;28;815;-75
2022/01/14 13:33:20;;;;;;;;;;;;;;;;;;5073063;28;1910;-75
2022/01/14 13:35:47;;;;;;;;;;;;;;;;;;5101127;28;1584;-75
2022/01/14 13:38:13;;;;;;;;;;;;;;;;;;5113492;28;1199;-75
2022/01/14 13:40:41;;;;;;;;;;;;;;;;;;5082721;28;1601;-75
2022/01/14 13:43:14;;;;;;;;;;;;;;;;;;5073024;28;941;-75
2022/01/14 13:45:41;;;;;;;;;;;;;;;;;;5071096;28;1598;-75
2022/01/14 13:48:09;;;;;;;;;;;;;;;;;;5071640;28;1200;-75
2022/01/14 13:50:54;;;;;;;;;;;;;;;;;;5073924;28;1608;-75
2022/01/14 13:53:22;;;;;;;;;;;;;;;;;;5072994;28;1906;-75
2022/01/14 13:55:49;;;;;;;;;;;;;;;;;;5071090;28;1675;-75
2022/01/14 13:58:19;;;;;;;;;;;;;;;;;;5072740;28;1267;-74
2022/01/14 14:00:46;;;;;;;;;;;;;;;;;;5070849;28;1750;-75
2022/01/14 14:03:21;;;;;;;;;;;;;;;;;;5074984;28;884;-76
2022/01/14 14:05:52;;;;;;;;;;;;;;;;;;5059286;28;920;-75
2022/01/14 14:08:39;;;;;;;;;;;;;;;;;;5095483;28;1824;-75
2022/01/14 14:16:45;;;;;;;;;;;;;;;;;;5079735;28;1624;-75
2022/01/14 14:19:10;;;;;;;;;;;;;;;;;;5075574;28;1606;-76
2022/01/14 14:21:35;;;;;;;;;;;;;;;;;;5075439;28;886;-75
2022/01/14 14:24:02;;;;;;;;;;;;;;;;;;5076018;28;1654;-75
2022/01/14 14:26:29;;;;;;;;;;;;;;;;;;5074454;28;1588;-75
2022/01/14 14:28:55;;;;;;;;;;;;;;;;;;5074640;28;1707;-75
2022/01/14 14:31:30;;;;;;;;;;;;;;;;;;5075705;28;1625;-75
2022/01/14 14:33:55;;;;;;;;;;;;;;;;;;5085125;28;1971;-75
2022/01/14 14:36:22;;;;;;;;;;;;;;;;;;5086949;28;1658;-75
2022/01/14 14:38:47;;;;;;;;;;;;;;;;;;5090402;28;1622;-75
2022/01/14 14:41:13;;;;;;;;;;;;;;;;;;5075912;28;1577;-75
2022/01/14 14:43:38;;;;;;;;;;;;;;;;;;5075447;28;1591;-74
2022/01/14 14:46:04;;;;;;;;;;;;;;;;;;5075473;28;1583;-75
2022/01/14 14:48:29;;;;;;;;;;;;;;;;;;5075260;28;1602;-75
2022/01/14 14:50:55;;;;;;;;;;;;;;;;;;5074555;28;1624;-75
2022/01/14 14:53:20;;;;;;;;;;;;;;;;;;5075042;28;1914;-76
2022/01/14 14:55:45;;;;;;;;;;;;;;;;;;5074007;28;1587;-75
2022/01/14 14:58:10;;;;;;;;;;;;;;;;;;5085551;28;1643;-75
2022/01/14 15:00:36;;;;;;;;;;;;;;;;;;5093650;28;1629;-75
2022/01/14 15:03:05;;;;;;;;;;;;;;;;;;5092085;28;1638;-75
2022/01/14 15:05:31;;;;;;;;;;;;;;;;;;5075220;28;1575;-75
2022/01/14 15:07:56;;;;;;;;;;;;;;;;;;5074862;28;1651;-75
2022/01/14 15:10:22;;;;;;;;;;;;;;;;;;5085327;28;1638;-76
2022/01/14 15:12:47;;;;;;;;;;;;;;;;;;5079348;28;1571;-75
2022/01/14 15:15:19;;;;;;;;;;;;;;;;;;5077411;28;1910;-75
2022/01/14 15:20:28;;;;;;;;;;;;;;;;;;5074332;28;1646;-75
2022/01/14 15:22:54;;;;;;;;;;;;;;;;;;5074133;28;1426;-75
2022/01/14 15:25:19;;;;;;;;;;;;;;;;;;5073671;28;1640;-76
2022/01/14 15:27:45;;;;;;;;;;;;;;;;;;5074233;28;1222;-75
2022/01/14 15:30:10;;;;;;;;;;;;;;;;;;5074440;28;1598;-75
2022/01/14 15:32:35;;;;;;;;;;;;;;;;;;5073953;28;870;-75
2022/01/14 15:35:01;;;;;;;;;;;;;;;;;;5066195;28;1910;-75
2022/01/14 15:37:26;;;;;;;;;;;;;;;;;;5073763;28;1207;-75
2022/01/14 15:39:52;;;;;;;;;;;;;;;;;;5074171;28;1571;-76
2022/01/14 15:42:17;;;;;;;;;;;;;;;;;;5075066;28;862;-75
2022/01/14 15:44:42;;;;;;;;;;;;;;;;;;5074108;28;810;-75
2022/01/14 15:47:07;;;;;;;;;;;;;;;;;;5074032;28;1584;-75
2022/01/14 15:49:33;;;;;;;;;;;;;;;;;;5074877;28;906;-75
2022/01/14 15:51:58;;;;;;;;;;;;;;;;;;5078632;28;1699;-75
2022/01/14 15:54:23;;;;;;;;;;;;;;;;;;5074857;28;1959;-75
2022/01/14 15:56:49;;;;;;;;;;;;;;;;;;5074052;28;1528;-75
2022/01/14 15:59:14;;;;;;;;;;;;;;;;;;5073676;28;862;-75
2022/01/14 16:01:39;;;;;;;;;;;;;;;;;;5078553;28;1773;-76
2022/01/14 16:04:05;;;;;;;;;;;;;;;;;;5094780;28;889;-75
2022/01/14 16:06:30;;;;;;;;;;;;;;;;;;5093269;28;1649;-76
2022/01/14 16:08:56;;;;;;;;;;;;;;;;;;5093126;28;1024;-75
2022/01/14 16:11:22;;;;;;;;;;;;;;;;;;5092874;28;1614;-75
2022/01/14 16:13:51;;;;;;;;;;;;;;;;;;5094705;28;1910;-76
2022/01/14 16:16:16;;;;;;;;;;;;;;;;;;5090110;28;1619;-75
2022/01/14 16:18:42;;;;;;;;;;;;;;;;;;5077302;28;1906;-76
2022/01/14 16:21:07;;;;;;;;;;;;;;;;;;5073027;28;1635;-75
2022/01/14 16:23:32;;;;;;;;;;;;;;;;;;5073524;28;1619;-75
2022/01/14 16:25:58;;;;;;;;;;;;;;;;;;5072311;28;1618;-75
2022/01/14 16:28:24;;;;;;;;;;;;;;;;;;5076615;28;1590;-76
2022/01/14 16:30:54;;;;;;;;;;;;;;;;;;5078548;28;1466;-76
2022/01/14 16:33:19;;;;;;;;;;;;;;;;;;5074115;28;1576;-77
2022/01/14 16:35:45;;;;;;;;;;;;;;;;;;5086963;28;1969;-76
2022/01/14 16:38:11;;;;;;;;;;;;;;;;;;5090159;28;1591;-76
2022/01/14 16:40:36;;;;;;;;;;;;;;;;;;5078962;28;1447;-77
2022/01/14 16:43:01;;;;;;;;;;;;;;;;;;5081736;28;1543;-77
2022/01/14 16:45:26;;;;;;;;;;;;;;;;;;5079727;28;1592;-77
2022/01/14 16:47:52;;;;;;;;;;;;;;;;;;5081966;28;1338;-76
2022/01/14 16:50:18;;;;;;;;;;;;;;;;;;5064383;28;1629;-76
2022/01/14 16:52:44;;;;;;;;;;;;;;;;;;5081105;28;1449;-77
2022/01/14 16:55:10;;;;;;;;;;;;;;;;;;5080604;28;1966;-76
2022/01/14 16:57:35;;;;;;;;;;;;;;;;;;5064052;28;1319;-76
2022/01/14 17:00:00;;;;;;;;;;;;;;;;;;5079937;28;1578;-76
2022/01/14 17:02:25;;;;;;;;;;;;;;;;;;5080825;28;1344;-77
2022/01/14 17:04:51;;;;;;;;;;;;;;;;;;5081905;28;1511;-76
2022/01/14 17:07:16;;;;;;;;;;;;;;;;;;5081975;28;1303;-77
2022/01/14 17:09:43;;;;;;;;;;;;;;;;;;5081765;28;1731;-75
2022/01/14 17:12:10;;;;;;;;;;;;;;;;;;5072761;28;1586;-75
2022/01/14 17:14:35;;;;;;;;;;;;;;;;;;5072078;28;1898;-76
2022/01/14 17:17:00;;;;;;;;;;;;;;;;;;5073084;28;1392;-77
2022/01/14 17:19:26;;;;;;;;;;;;;;;;;;5072286;28;1568;-77
2022/01/14 17:21:51;;;;;;;;;;;;;;;;;;5074845;28;1666;-77
2022/01/14 17:24:16;;;;;;;;;;;;;;;;;;5080819;28;1681;-77
2022/01/14 17:26:41;;;;;;;;;;;;;;;;;;5085676;28;1592;-78
2022/01/14 17:29:06;;;;;;;;;;;;;;;;;;5074882;28;1640;-77
2022/01/14 17:31:32;;;;;;;;;;;;;;;;;;5074815;28;1675;-78
2022/01/14 17:33:58;;;;;;;;;;;;;;;;;;5073185;28;1975;-76
2022/01/14 17:36:23;;;;;;;;;;;;;;;;;;5074160;28;1608;-77